createdAt,value
2019-05-01T00:00:31.455Z,3.87
2019-05-01T00:03:23.664Z,3.53
2019-05-01T00:05:56.496Z,3.10
2019-05-01T00:08:25.806Z,5.23
2019-05-01T00:10:55.117Z,3.13
2019-05-01T00:13:25.124Z,4.60
2019-05-01T00:15:55.083Z,4.37
2019-05-01T00:18:24.532Z,4.17
2019-05-01T00:20:53.841Z,4.93
2019-05-01T00:23:23.132Z,4.83
2019-05-01T00:25:52.421Z,3.33
2019-05-01T00:28:21.707Z,3.47
2019-05-01T00:30:50.937Z,4.80
2019-05-01T00:33:20.438Z,5.00
2019-05-01T00:35:49.692Z,3.93
2019-05-01T00:38:18.982Z,3.90
2019-05-01T00:40:48.314Z,3.83
2019-05-01T00:43:17.613Z,3.60
2019-05-01T00:45:48.018Z,3.63
2019-05-01T00:48:17.322Z,4.27
2019-05-01T00:50:46.544Z,5.77
2019-05-01T00:53:15.838Z,3.87
2019-05-01T00:56:14.098Z,4.20
2019-05-01T00:58:54.274Z,3.37
2019-05-01T01:01:42.823Z,5.80
2019-05-01T01:04:15.804Z,4.63
2019-05-01T01:06:45.094Z,4.43
2019-05-01T01:09:14.473Z,3.70
2019-05-01T01:11:45.512Z,5.47
2019-05-01T01:14:14.813Z,4.83
2019-05-01T01:16:44.149Z,3.70
2019-05-01T01:19:14.522Z,3.50
2019-05-01T01:21:43.802Z,3.33
2019-05-01T01:24:14.896Z,6.50
2019-05-01T01:26:44.249Z,3.47
2019-05-01T01:29:13.559Z,7.27
2019-05-01T01:34:10.723Z,4.67
2019-05-01T01:36:41.485Z,4.27
2019-05-01T01:39:10.794Z,6.83
2019-05-01T01:41:40.299Z,4.60
2019-05-01T01:44:52.981Z,3.90
2019-05-01T01:47:19.070Z,3.37
2019-05-01T01:49:48.586Z,4.73
2019-05-01T01:52:17.951Z,5.27
2019-05-01T01:54:47.423Z,11.60
2019-05-01T01:57:17.267Z,5.40
2019-05-01T01:59:46.718Z,7.73
2019-05-01T02:02:37.785Z,11.60
2019-05-01T02:05:15.233Z,6.43
2019-05-01T02:07:44.778Z,12.07
2019-05-01T02:10:14.767Z,11.07
2019-05-01T02:12:44.303Z,8.63
2019-05-01T02:15:14.014Z,8.13
2019-05-01T02:17:43.276Z,10.00
2019-05-01T02:20:12.979Z,14.13
2019-05-01T02:22:42.362Z,11.20
2019-05-01T02:25:13.057Z,7.93
2019-05-01T02:28:04.140Z,7.70
2019-05-01T02:30:34.045Z,10.27
2019-05-01T02:33:03.996Z,9.57
2019-05-01T02:35:34.854Z,8.67
2019-05-01T02:38:06.635Z,9.73
2019-05-01T02:40:53.483Z,9.40
2019-05-01T02:43:26.270Z,7.80
2019-05-01T02:45:59.018Z,12.80
2019-05-01T02:48:32.246Z,8.37
2019-05-01T02:51:04.618Z,10.93
2019-05-01T02:53:37.815Z,12.27
2019-05-01T02:56:27.065Z,11.53
2019-05-01T02:58:57.889Z,8.23
2019-05-01T03:01:44.665Z,6.93
2019-05-01T03:03:59.720Z,6.97
2019-05-01T03:06:45.161Z,4.97
2019-05-01T03:09:15.161Z,6.97
2019-05-01T03:11:47.403Z,6.03
2019-05-01T03:14:20.049Z,5.33
2019-05-01T03:16:52.380Z,5.27
2019-05-01T03:19:43.115Z,7.40
2019-05-01T03:22:26.100Z,7.57
2019-05-01T03:24:56.388Z,5.00
2019-05-01T03:27:26.038Z,8.07
2019-05-01T03:29:55.503Z,5.77
2019-05-01T03:32:25.180Z,6.03
2019-05-01T03:34:54.568Z,9.53
2019-05-01T03:37:24.045Z,7.70
2019-05-01T03:39:53.600Z,6.17
2019-05-01T03:42:23.377Z,7.17
2019-05-01T03:44:53.075Z,4.93
2019-05-01T03:47:22.929Z,5.37
2019-05-01T03:49:59.286Z,4.93
2019-05-01T03:52:28.618Z,5.40
2019-05-01T03:54:58.311Z,6.23
2019-05-01T03:57:27.880Z,5.23
2019-05-01T03:59:57.166Z,5.60
2019-05-01T04:03:03.871Z,5.73
2019-05-01T04:05:33.351Z,8.20
2019-05-01T04:08:02.693Z,5.47
2019-05-01T04:10:31.973Z,5.10
2019-05-01T04:13:01.837Z,6.97
2019-05-01T04:15:31.504Z,7.27
2019-05-01T04:18:02.458Z,4.90
2019-05-01T04:20:32.041Z,4.80
2019-05-01T04:23:02.857Z,6.83
2019-05-01T04:25:32.280Z,8.67
2019-05-01T04:28:20.714Z,7.33
2019-05-01T04:31:11.634Z,7.80
2019-05-01T04:33:42.199Z,6.80
2019-05-01T04:36:18.168Z,5.53
2019-05-01T04:38:48.200Z,4.57
2019-05-01T04:41:18.154Z,5.60
2019-05-01T04:43:47.442Z,6.23
2019-05-01T04:46:16.960Z,6.47
2019-05-01T04:48:46.518Z,7.10
2019-05-01T04:51:16.744Z,6.60
2019-05-01T04:53:47.157Z,6.50
2019-05-01T04:56:16.832Z,5.50
2019-05-01T04:58:46.504Z,5.90
2019-05-01T05:01:16.215Z,5.07
2019-05-01T05:03:47.203Z,5.23
2019-05-01T05:06:17.119Z,5.70
2019-05-01T05:08:46.719Z,6.20
2019-05-01T05:11:21.913Z,7.17
2019-05-01T05:14:11.247Z,5.60
2019-05-01T05:16:51.359Z,6.30
2019-05-01T05:19:20.613Z,6.30
2019-05-01T05:21:52.033Z,7.30
2019-05-01T05:24:22.715Z,7.33
2019-05-01T05:26:52.530Z,6.47
2019-05-01T05:29:23.600Z,6.13
2019-05-01T05:31:53.842Z,6.07
2019-05-01T05:34:26.133Z,6.43
2019-05-01T05:36:59.933Z,6.00
2019-05-01T05:39:43.863Z,11.37
2019-05-01T05:42:14.132Z,6.00
2019-05-01T05:44:45.100Z,5.90
2019-05-01T05:47:14.795Z,7.93
2019-05-01T05:49:44.556Z,6.30
2019-05-01T05:52:21.980Z,5.87
2019-05-01T05:55:14.497Z,7.27
2019-05-01T05:58:04.832Z,9.17
2019-05-01T06:00:56.290Z,8.17
2019-05-01T06:03:57.000Z,7.70
2019-05-01T06:06:47.574Z,6.90
2019-05-01T06:09:19.747Z,7.30
2019-05-01T06:12:11.175Z,7.03
2019-05-01T06:15:08.166Z,7.33
2019-05-01T06:18:09.793Z,7.00
2019-05-01T06:21:02.269Z,6.80
2019-05-01T06:23:39.969Z,6.97
2019-05-01T06:26:32.160Z,6.87
2019-05-01T06:29:00.819Z,8.13
2019-05-01T06:31:31.778Z,7.50
2019-05-01T06:34:01.589Z,7.63
2019-05-01T06:36:31.235Z,8.17
2019-05-01T06:39:01.970Z,8.40
2019-05-01T06:41:42.464Z,9.87
2019-05-01T06:44:27.272Z,9.37
2019-05-01T06:47:13.183Z,10.37
2019-05-01T06:50:06.080Z,10.60
2019-05-01T06:52:37.902Z,10.07
2019-05-01T06:55:07.723Z,12.20
2019-05-01T06:57:43.536Z,9.83
2019-05-01T07:00:15.247Z,9.47
2019-05-01T07:02:46.286Z,9.03
2019-05-01T07:05:16.472Z,10.53
2019-05-01T07:07:48.112Z,9.27
2019-05-01T07:10:29.789Z,10.77
2019-05-01T07:12:49.100Z,9.80
2019-05-01T07:15:21.829Z,9.45
2019-05-01T07:17:49.574Z,10.03
2019-05-01T07:20:47.332Z,10.20
2019-05-01T07:23:18.786Z,10.65
2019-05-01T07:25:48.235Z,10.78
2019-05-01T07:28:17.766Z,9.90
2019-05-01T07:30:54.847Z,11.83
2019-05-01T07:33:25.244Z,10.40
2019-05-01T07:35:54.948Z,11.70
2019-05-01T07:38:24.686Z,11.90
2019-05-01T07:40:54.123Z,11.35
2019-05-01T07:43:41.556Z,13.53
2019-05-01T07:46:35.912Z,13.10
2019-05-01T07:49:07.542Z,15.75
2019-05-01T07:51:42.392Z,15.60
2019-05-01T07:54:09.877Z,19.75
2019-05-01T07:56:39.489Z,18.42
2019-05-01T07:59:08.998Z,17.40
2019-05-01T08:01:59.839Z,17.42
2019-05-01T08:04:36.947Z,18.25
2019-05-01T08:07:00.725Z,19.07
2019-05-01T08:09:30.014Z,17.12
2019-05-01T08:11:59.356Z,17.62
2019-05-01T08:14:28.652Z,18.07
2019-05-01T08:16:59.622Z,18.55
2019-05-01T08:19:40.745Z,20.40
2019-05-01T08:22:13.039Z,21.95
2019-05-01T08:24:42.394Z,20.30
2019-05-01T08:27:32.013Z,19.90
2019-05-01T08:30:17.424Z,20.02
2019-05-01T08:33:09.816Z,20.30
2019-05-01T08:35:42.713Z,21.42
2019-05-01T08:38:14.195Z,21.40
2019-05-01T08:40:45.803Z,22.75
2019-05-01T08:43:18.413Z,24.07
2019-05-01T08:46:11.807Z,22.93
2019-05-01T08:48:55.236Z,22.75
2019-05-01T08:51:30.133Z,21.65
2019-05-01T08:54:04.055Z,21.12
2019-05-01T08:56:35.458Z,24.50
2019-05-01T08:59:06.919Z,22.65
2019-05-01T09:01:38.340Z,23.20
2019-05-01T09:04:12.977Z,24.82
2019-05-01T09:06:43.917Z,24.45
2019-05-01T09:09:16.472Z,25.05
2019-05-01T09:11:47.968Z,24.52
2019-05-01T09:14:19.218Z,27.82
2019-05-01T09:16:52.446Z,29.17
2019-05-01T09:19:22.412Z,29.47
2019-05-01T09:21:52.471Z,24.97
2019-05-01T09:24:23.189Z,27.37
2019-05-01T09:27:24.001Z,25.93
2019-05-01T09:29:52.881Z,26.17
2019-05-01T09:32:24.060Z,26.33
2019-05-01T09:34:53.745Z,26.37
2019-05-01T09:37:23.111Z,24.75
2019-05-01T09:39:52.384Z,30.92
2019-05-01T09:42:23.875Z,24.23
2019-05-01T09:44:52.723Z,23.62
2019-05-01T09:47:22.402Z,22.75
2019-05-01T09:49:53.905Z,24.55
2019-05-01T09:52:38.923Z,24.87
2019-05-01T09:55:45.638Z,26.12
2019-05-01T09:58:16.677Z,25.27
2019-05-01T10:00:48.912Z,22.65
2019-05-01T10:03:18.885Z,23.80
2019-05-01T10:05:48.407Z,23.25
2019-05-01T10:08:20.221Z,25.30
2019-05-01T10:10:49.543Z,27.33
2019-05-01T10:13:22.389Z,26.23
2019-05-01T10:15:51.138Z,27.20
2019-05-01T10:18:20.578Z,27.63
2019-05-01T10:20:49.908Z,26.37
2019-05-01T10:23:19.239Z,24.90
2019-05-01T10:25:52.310Z,25.50
2019-05-01T10:28:37.347Z,24.23
2019-05-01T10:31:13.217Z,20.53
2019-05-01T10:33:47.001Z,21.37
2019-05-01T10:36:42.315Z,23.63
2019-05-01T10:39:16.019Z,23.67
2019-05-01T10:42:02.885Z,23.10
2019-05-01T10:44:34.336Z,21.60
2019-05-01T10:47:04.836Z,22.23
2019-05-01T10:49:35.846Z,22.60
2019-05-01T10:52:13.853Z,19.63
2019-05-01T10:54:39.024Z,23.03
2019-05-01T10:57:08.845Z,23.87
2019-05-01T10:59:40.566Z,21.20
2019-05-01T11:02:12.023Z,23.27
2019-05-01T11:04:42.910Z,23.33
2019-05-01T11:07:13.911Z,23.10
2019-05-01T11:09:44.748Z,24.33
2019-05-01T11:12:15.668Z,24.00
2019-05-01T11:14:46.813Z,22.37
2019-05-01T11:17:19.221Z,22.73
2019-05-01T11:19:49.161Z,25.17
2019-05-01T11:22:21.916Z,23.53
2019-05-01T11:24:51.552Z,25.80
2019-05-01T11:27:21.265Z,25.70
2019-05-01T11:29:50.849Z,22.73
2019-05-01T11:32:35.566Z,23.53
2019-05-01T11:35:27.482Z,26.37
2019-05-01T11:38:24.954Z,28.70
2019-05-01T11:41:03.024Z,26.00
2019-05-01T11:43:32.644Z,23.93
2019-05-01T11:46:03.458Z,26.47
2019-05-01T11:48:32.781Z,24.13
2019-05-01T11:51:02.376Z,24.37
2019-05-01T11:53:31.989Z,25.17
2019-05-01T11:56:01.302Z,26.47
2019-05-01T11:58:31.748Z,25.00
2019-05-01T12:01:02.441Z,24.50
2019-05-01T12:03:34.590Z,23.07
2019-05-01T12:06:03.961Z,24.67
2019-05-01T12:08:33.248Z,25.50
2019-05-01T12:11:03.845Z,26.03
2019-05-01T12:13:43.193Z,27.30
2019-05-01T12:16:15.685Z,27.20
2019-05-01T12:18:45.182Z,25.07
2019-05-01T12:21:14.661Z,26.33
2019-05-01T12:23:44.164Z,28.07
2019-05-01T12:26:13.501Z,23.70
2019-05-01T12:28:42.820Z,26.13
2019-05-01T12:31:12.133Z,24.50
2019-05-01T12:33:41.496Z,23.90
2019-05-01T12:36:10.772Z,25.87
2019-05-01T12:38:40.070Z,24.33
2019-05-01T12:41:22.120Z,21.23
2019-05-01T12:43:51.462Z,26.63
2019-05-01T12:46:38.510Z,23.27
2019-05-01T12:49:07.818Z,23.20
2019-05-01T12:51:38.184Z,23.40
2019-05-01T12:54:16.522Z,23.20
2019-05-01T12:56:53.375Z,26.10
2019-05-01T12:59:22.704Z,22.77
2019-05-01T13:01:52.026Z,22.40
2019-05-01T13:04:21.427Z,22.00
2019-05-01T13:06:52.901Z,19.80
2019-05-01T13:09:22.207Z,21.43
2019-05-01T13:11:51.793Z,15.87
2019-05-01T13:14:21.115Z,14.57
2019-05-01T13:16:50.438Z,13.93
2019-05-01T13:19:19.745Z,15.63
2019-05-01T13:21:49.076Z,16.80
2019-05-01T13:24:18.362Z,18.77
2019-05-01T13:27:10.733Z,13.87
2019-05-01T13:30:01.863Z,14.20
2019-05-01T13:32:48.496Z,15.70
2019-05-01T13:35:18.060Z,16.63
2019-05-01T13:37:47.382Z,18.50
2019-05-01T13:40:18.282Z,14.70
2019-05-01T13:42:47.573Z,14.77
2019-05-01T13:45:17.350Z,15.93
2019-05-01T13:47:46.626Z,15.40
2019-05-01T13:50:16.029Z,13.83
2019-05-01T13:52:45.842Z,14.87
2019-05-01T13:55:15.957Z,13.10
2019-05-01T13:57:46.320Z,13.60
2019-05-01T14:00:19.970Z,12.97
2019-05-01T14:02:49.076Z,13.43
2019-05-01T14:05:18.533Z,13.83
2019-05-01T14:07:48.944Z,12.77
2019-05-01T14:10:19.983Z,12.13
2019-05-01T14:12:49.304Z,11.90
2019-05-01T14:15:18.570Z,11.97
2019-05-01T14:17:49.350Z,12.07
2019-05-01T14:20:37.892Z,11.77
2019-05-01T14:23:12.565Z,11.37
2019-05-01T14:25:59.793Z,10.60
2019-05-01T14:28:29.107Z,10.90
2019-05-01T14:30:58.364Z,10.23
2019-05-01T14:33:27.678Z,10.63
2019-05-01T14:35:56.976Z,11.13
2019-05-01T14:38:28.054Z,10.20
2019-05-01T14:40:57.379Z,10.33
2019-05-01T14:43:28.529Z,11.83
2019-05-01T14:45:57.861Z,11.67
2019-05-01T14:48:27.222Z,12.03
2019-05-01T14:50:56.543Z,12.90
2019-05-01T14:53:25.937Z,11.33
2019-05-01T14:55:56.073Z,16.73
2019-05-01T14:58:25.423Z,11.70
2019-05-01T15:00:54.793Z,11.90
2019-05-01T15:03:24.120Z,11.67
2019-05-01T15:05:53.409Z,13.60
2019-05-01T15:08:22.686Z,14.73
2019-05-01T15:10:52.437Z,11.47
2019-05-01T15:13:32.734Z,11.77
2019-05-01T15:16:17.520Z,10.67
2019-05-01T15:19:11.872Z,10.20
2019-05-01T15:21:41.209Z,9.97
2019-05-01T15:24:10.505Z,8.97
2019-05-01T15:26:39.848Z,10.37
2019-05-01T15:29:10.602Z,10.47
2019-05-01T15:31:39.932Z,11.83
2019-05-01T15:34:09.307Z,12.50
2019-05-01T15:36:38.645Z,15.17
2019-05-01T15:39:12.551Z,10.20
2019-05-01T15:42:07.492Z,12.03
2019-05-01T15:44:38.162Z,10.47
2019-05-01T15:47:07.763Z,10.87
2019-05-01T15:49:37.139Z,10.20
2019-05-01T15:52:06.679Z,11.40
2019-05-01T15:54:35.967Z,12.87
2019-05-01T15:57:05.915Z,9.10
2019-05-01T15:59:35.240Z,14.23
2019-05-01T16:02:04.844Z,16.60
2019-05-01T16:04:34.146Z,9.57
2019-05-01T16:07:03.434Z,12.23
2019-05-01T16:09:32.729Z,12.53
2019-05-01T16:12:17.353Z,10.17
2019-05-01T16:14:51.162Z,10.97
2019-05-01T16:17:21.980Z,9.40
2019-05-01T16:19:51.330Z,9.33
2019-05-01T16:22:22.603Z,9.43
2019-05-01T16:24:52.016Z,12.23
2019-05-01T16:27:21.494Z,10.43
2019-05-01T16:29:51.363Z,10.47
2019-05-01T16:32:20.796Z,12.10
2019-05-01T16:34:50.093Z,11.70
2019-05-01T16:37:19.523Z,8.97
2019-05-01T16:40:07.707Z,7.80
2019-05-01T16:42:41.653Z,10.73
2019-05-01T16:45:12.490Z,10.60
2019-05-01T16:47:41.805Z,17.47
2019-05-01T16:50:11.785Z,14.87
2019-05-01T16:52:43.797Z,11.20
2019-05-01T16:55:13.727Z,15.93
2019-05-01T16:57:43.353Z,11.33
2019-05-01T17:00:13.720Z,12.47
2019-05-01T17:03:11.240Z,9.27
2019-05-01T17:05:48.236Z,24.93
2019-05-01T17:08:36.057Z,11.13
2019-05-01T17:11:00.860Z,15.13
2019-05-01T17:13:30.454Z,9.80
2019-05-01T17:16:01.130Z,9.70
2019-05-01T17:18:30.459Z,11.07
2019-05-01T17:20:59.800Z,10.87
2019-05-01T17:23:29.386Z,8.33
2019-05-01T17:25:59.426Z,9.60
2019-05-01T17:28:28.768Z,9.00
2019-05-01T17:31:00.946Z,11.30
2019-05-01T17:33:30.962Z,18.10
2019-05-01T17:36:00.298Z,10.33
2019-05-01T17:38:29.645Z,13.97
2019-05-01T17:40:59.085Z,11.40
2019-05-01T17:43:31.830Z,9.87
2019-05-01T17:46:01.312Z,9.17
2019-05-01T17:48:33.624Z,11.03
2019-05-01T17:51:03.219Z,11.10
2019-05-01T17:53:32.585Z,10.30
2019-05-01T17:56:01.905Z,9.77
2019-05-01T17:58:31.568Z,10.40
2019-05-01T18:01:27.862Z,9.57
2019-05-01T18:04:13.084Z,9.37
2019-05-01T18:06:46.564Z,12.87
2019-05-01T18:09:16.192Z,12.27
2019-05-01T18:11:47.334Z,11.50
2019-05-01T18:14:17.787Z,22.73
2019-05-01T18:16:46.916Z,22.33
2019-05-01T18:19:18.597Z,21.23
2019-05-01T18:21:53.937Z,17.07
2019-05-01T18:24:58.427Z,13.20
2019-05-01T18:27:34.804Z,13.23
2019-05-01T18:30:07.928Z,13.00
2019-05-01T18:32:47.540Z,29.77
2019-05-01T18:35:16.152Z,22.43
2019-05-01T18:37:59.121Z,15.70
2019-05-01T18:40:49.386Z,16.43
2019-05-01T18:43:19.152Z,16.17
2019-05-01T18:45:51.895Z,15.90
2019-05-01T18:48:22.456Z,33.90
2019-05-01T18:50:55.115Z,13.07
2019-05-01T18:53:24.097Z,11.80
2019-05-01T18:55:56.058Z,11.83
2019-05-01T18:58:25.857Z,11.33
2019-05-01T19:00:56.659Z,11.83
2019-05-01T19:03:25.946Z,14.40
2019-05-01T19:06:18.591Z,12.53
2019-05-01T19:08:50.116Z,20.10
2019-05-01T19:11:27.059Z,23.13
2019-05-01T19:13:59.871Z,23.23
2019-05-01T19:16:32.735Z,15.67
2019-05-01T19:19:09.996Z,15.73
2019-05-01T19:21:58.726Z,39.73
2019-05-01T19:24:40.076Z,19.57
2019-05-01T19:27:54.762Z,31.10
2019-05-01T19:30:39.219Z,34.60
2019-05-01T19:33:09.365Z,50.33
2019-05-01T19:35:38.640Z,19.67
2019-05-01T19:38:07.943Z,25.50
2019-05-01T19:40:37.351Z,18.40
2019-05-01T19:43:06.791Z,24.33
2019-05-01T19:45:36.061Z,22.60
2019-05-01T19:48:05.558Z,24.77
2019-05-01T19:50:35.075Z,24.23
2019-05-01T19:53:10.062Z,21.53
2019-05-01T19:55:39.957Z,18.53
2019-05-01T19:58:09.048Z,14.97
2019-05-01T20:00:59.111Z,18.03
2019-05-01T20:03:30.659Z,17.37
2019-05-01T20:06:05.447Z,15.63
2019-05-01T20:08:31.259Z,16.60
2019-05-01T20:11:01.137Z,34.63
2019-05-01T20:13:30.768Z,62.90
2019-05-01T20:16:01.216Z,55.03
2019-05-01T20:18:30.667Z,42.40
2019-05-01T20:21:00.241Z,39.43
2019-05-01T20:23:31.522Z,78.13
2019-05-01T20:26:00.948Z,32.07
2019-05-01T20:28:31.247Z,38.30
2019-05-01T20:31:01.749Z,37.83
2019-05-01T20:33:33.407Z,34.67
2019-05-01T20:36:05.092Z,34.57
2019-05-01T20:38:36.732Z,42.70
2019-05-01T20:41:10.178Z,67.30
2019-05-01T20:43:38.033Z,43.83
2019-05-01T20:46:08.906Z,23.30
2019-05-01T20:48:38.399Z,116.43
2019-05-01T20:51:08.110Z,41.87
2019-05-01T20:53:38.098Z,46.20
2019-05-01T20:56:35.698Z,22.13
2019-05-01T20:59:20.506Z,21.13
2019-05-01T21:01:50.276Z,21.73
2019-05-01T21:04:38.620Z,23.27
2019-05-01T21:07:21.380Z,21.10
2019-05-01T21:09:56.964Z,30.63
2019-05-01T21:12:23.872Z,28.70
2019-05-01T21:14:54.800Z,24.87
2019-05-01T21:17:28.117Z,25.93
2019-05-01T21:19:57.635Z,24.73
2019-05-01T21:22:28.051Z,33.80
2019-05-01T21:24:59.178Z,45.57
2019-05-01T21:27:29.299Z,27.50
2019-05-01T21:29:59.024Z,21.60
2019-05-01T21:32:28.774Z,22.53
2019-05-01T21:34:58.315Z,23.67
2019-05-01T21:37:28.046Z,23.17
2019-05-01T21:40:02.660Z,22.70
2019-05-01T21:42:32.695Z,26.17
2019-05-01T21:45:04.442Z,19.73
2019-05-01T21:47:34.266Z,22.80
2019-05-01T21:50:03.874Z,21.87
2019-05-01T21:52:33.366Z,21.87
2019-05-01T21:55:03.223Z,22.43
2019-05-01T21:57:35.638Z,23.53
2019-05-01T22:00:06.305Z,21.23
2019-05-01T22:02:36.344Z,23.33
2019-05-01T22:05:06.300Z,20.30
2019-05-01T22:07:35.869Z,23.63
2019-05-01T22:10:06.479Z,24.00
2019-05-01T22:12:35.776Z,24.33
2019-05-01T22:15:12.482Z,22.67
2019-05-01T22:17:55.091Z,25.10
2019-05-01T22:20:31.835Z,19.63
2019-05-01T22:23:04.205Z,26.40
2019-05-01T22:25:39.922Z,24.63
2019-05-01T22:28:26.875Z,30.40
2019-05-01T22:31:09.570Z,27.53
2019-05-01T22:33:39.464Z,27.93
2019-05-01T22:36:09.897Z,30.60
2019-05-01T22:38:39.170Z,27.60
2019-05-01T22:41:11.196Z,28.80
2019-05-01T22:43:40.565Z,30.37
2019-05-01T22:46:15.798Z,24.83
2019-05-01T22:48:45.062Z,25.67
2019-05-01T22:51:21.496Z,26.57
2019-05-01T22:53:56.814Z,27.53
2019-05-01T22:56:26.754Z,26.03
2019-05-01T22:58:56.025Z,28.73
2019-05-01T23:01:26.475Z,26.73
2019-05-01T23:04:01.379Z,24.80
2019-05-01T23:06:32.480Z,29.27
2019-05-01T23:09:01.780Z,25.93
2019-05-01T23:11:33.564Z,25.33
2019-05-01T23:14:02.901Z,31.20
2019-05-01T23:16:37.564Z,26.87
2019-05-01T23:19:06.993Z,27.60
2019-05-01T23:21:36.275Z,29.97
2019-05-01T23:24:05.944Z,33.33
2019-05-01T23:26:35.249Z,26.40
2019-05-01T23:29:04.574Z,26.73
2019-05-01T23:31:34.048Z,26.57
2019-05-01T23:34:03.344Z,28.37
2019-05-01T23:36:32.687Z,28.53
2019-05-01T23:39:02.000Z,28.43
2019-05-01T23:41:45.154Z,29.10
2019-05-01T23:44:03.609Z,31.00
2019-05-01T23:46:33.326Z,27.97
2019-05-01T23:49:02.628Z,30.50
2019-05-01T23:51:31.948Z,28.03
2019-05-01T23:54:01.226Z,28.20
2019-05-01T23:56:31.156Z,31.37
2019-05-01T23:59:01.524Z,27.20
